sensor_id;sensor_type;location;lat;lon;timestamp;P1;durP1;ratioP1;P2;durP2;ratioP2
23123;SDS011;11731;48.592;8.858;2022-12-13T04:31:25;11.40;;;6.87;;
23123;SDS011;11731;48.592;8.858;2022-12-13T04:33:52;13.03;;;7.00;;
23123;SDS011;11731;48.592;8.858;2022-12-13T04:36:19;9.60;;;6.67;;
23123;SDS011;11731;48.592;8.858;2022-12-13T04:38:48;12.20;;;7.13;;
23123;SDS011;11731;48.592;8.858;2022-12-13T04:41:16;10.30;;;6.50;;
23123;SDS011;11731;48.592;8.858;2022-12-13T04:43:45;11.30;;;6.40;;
23123;SDS011;11731;48.592;8.858;2022-12-13T04:46:22;11.40;;;7.47;;
23123;SDS011;11731;48.592;8.858;2022-12-13T04:49:05;12.80;;;6.93;;
23123;SDS011;11731;48.592;8.858;2022-12-13T04:51:46;11.83;;;6.90;;
23123;SDS011;11731;48.592;8.858;2022-12-13T04:54:18;14.53;;;8.33;;
23123;SDS011;11731;48.592;8.858;2022-12-13T04:56:45;13.20;;;7.43;;
23123;SDS011;11731;48.592;8.858;2022-12-13T04:59:12;14.00;;;7.07;;
23123;SDS011;11731;48.592;8.858;2022-12-13T05:01:39;12.10;;;7.43;;
23123;SDS011;11731;48.592;8.858;2022-12-13T05:04:07;14.93;;;8.87;;
23123;SDS011;11731;48.592;8.858;2022-12-13T05:06:34;13.83;;;8.07;;
23123;SDS011;11731;48.592;8.858;2022-12-13T05:09:01;16.77;;;8.10;;
23123;SDS011;11731;48.592;8.858;2022-12-13T05:11:28;15.10;;;8.97;;
23123;SDS011;11731;48.592;8.858;2022-12-13T05:13:55;12.27;;;7.57;;
23123;SDS011;11731;48.592;8.858;2022-12-13T05:16:25;14.03;;;8.17;;
23123;SDS011;11731;48.592;8.858;2022-12-13T05:19:12;13.00;;;8.47;;
23123;SDS011;11731;48.592;8.858;2022-12-13T05:21:39;15.23;;;7.20;;
23123;SDS011;11731;48.592;8.858;2022-12-13T05:24:06;12.60;;;7.77;;
23123;SDS011;11731;48.592;8.858;2022-12-13T05:26:34;12.53;;;7.00;;
23123;SDS011;11731;48.592;8.858;2022-12-13T05:29:01;14.60;;;8.33;;
23123;SDS011;11731;48.592;8.858;2022-12-13T05:31:28;13.00;;;8.27;;
23123;SDS011;11731;48.592;8.858;2022-12-13T05:36:38;18.00;;;8.10;;
23123;SDS011;11731;48.592;8.858;2022-12-13T05:39:05;11.97;;;8.07;;
23123;SDS011;11731;48.592;8.858;2022-12-13T05:41:34;18.20;;;8.53;;
23123;SDS011;11731;48.592;8.858;2022-12-13T05:44:02;15.37;;;8.07;;
23123;SDS011;11731;48.592;8.858;2022-12-13T05:46:51;10.97;;;8.30;;
23123;SDS011;11731;48.592;8.858;2022-12-13T05:49:18;13.30;;;8.30;;
23123;SDS011;11731;48.592;8.858;2022-12-13T05:51:46;15.50;;;8.13;;
23123;SDS011;11731;48.592;8.858;2022-12-13T05:54:13;11.73;;;7.90;;
23123;SDS011;11731;48.592;8.858;2022-12-13T05:56:43;15.57;;;8.63;;
23123;SDS011;11731;48.592;8.858;2022-12-13T05:59:10;12.47;;;8.10;;
23123;SDS011;11731;48.592;8.858;2022-12-13T06:01:37;10.73;;;6.50;;
23123;SDS011;11731;48.592;8.858;2022-12-13T06:04:04;15.20;;;8.43;;
23123;SDS011;11731;48.592;8.858;2022-12-13T06:06:31;12.23;;;7.90;;
23123;SDS011;11731;48.592;8.858;2022-12-13T06:08:59;16.10;;;7.00;;
23123;SDS011;11731;48.592;8.858;2022-12-13T06:11:27;15.27;;;8.13;;
23123;SDS011;11731;48.592;8.858;2022-12-13T06:13:54;14.37;;;7.97;;
23123;SDS011;11731;48.592;8.858;2022-12-13T06:16:21;15.90;;;8.10;;
23123;SDS011;11731;48.592;8.858;2022-12-13T06:19:11;11.53;;;7.03;;
23123;SDS011;11731;48.592;8.858;2022-12-13T06:21:38;18.97;;;8.50;;
23123;SDS011;11731;48.592;8.858;2022-12-13T06:24:06;15.27;;;8.67;;
23123;SDS011;11731;48.592;8.858;2022-12-13T06:26:33;10.17;;;6.87;;
23123;SDS011;11731;48.592;8.858;2022-12-13T06:29:09;12.70;;;6.80;;
23123;SDS011;11731;48.592;8.858;2022-12-13T06:31:53;12.23;;;7.47;;
23123;SDS011;11731;48.592;8.858;2022-12-13T06:34:21;11.63;;;6.67;;
23123;SDS011;11731;48.592;8.858;2022-12-13T06:36:48;10.87;;;7.23;;
23123;SDS011;11731;48.592;8.858;2022-12-13T06:39:17;18.70;;;8.50;;
23123;SDS011;11731;48.592;8.858;2022-12-13T06:44:40;10.87;;;6.53;;
23123;SDS011;11731;48.592;8.858;2022-12-13T06:47:07;13.47;;;7.30;;
23123;SDS011;11731;48.592;8.858;2022-12-13T06:49:34;12.20;;;7.87;;
23123;SDS011;11731;48.592;8.858;2022-12-13T06:52:01;13.77;;;7.43;;
23123;SDS011;11731;48.592;8.858;2022-12-13T06:55:05;12.37;;;6.90;;
23123;SDS011;11731;48.592;8.858;2022-12-13T06:57:32;12.87;;;7.40;;
23123;SDS011;11731;48.592;8.858;2022-12-13T06:59:59;10.30;;;6.50;;
23123;SDS011;11731;48.592;8.858;2022-12-13T07:02:27;13.10;;;7.83;;
23123;SDS011;11731;48.592;8.858;2022-12-13T07:04:54;13.53;;;7.43;;
23123;SDS011;11731;48.592;8.858;2022-12-13T07:07:22;15.90;;;7.73;;
23123;SDS011;11731;48.592;8.858;2022-12-13T07:09:56;13.77;;;8.17;;
23123;SDS011;11731;48.592;8.858;2022-12-13T07:12:31;15.27;;;7.73;;
23123;SDS011;11731;48.592;8.858;2022-12-13T07:15:12;17.17;;;8.27;;
23123;SDS011;11731;48.592;8.858;2022-12-13T07:17:39;13.03;;;7.93;;
23123;SDS011;11731;48.592;8.858;2022-12-13T07:20:07;11.90;;;7.53;;
23123;SDS011;11731;48.592;8.858;2022-12-13T07:22:35;11.47;;;7.20;;
23123;SDS011;11731;48.592;8.858;2022-12-13T07:25:03;14.07;;;8.17;;
23123;SDS011;11731;48.592;8.858;2022-12-13T07:27:32;12.40;;;7.60;;
23123;SDS011;11731;48.592;8.858;2022-12-13T07:29:59;16.30;;;7.33;;
23123;SDS011;11731;48.592;8.858;2022-12-13T07:32:26;11.90;;;7.13;;
23123;SDS011;11731;48.592;8.858;2022-12-13T07:34:56;12.83;;;8.00;;
23123;SDS011;11731;48.592;8.858;2022-12-13T07:37:23;11.73;;;7.50;;
23123;SDS011;11731;48.592;8.858;2022-12-13T07:39:53;12.00;;;8.13;;
23123;SDS011;11731;48.592;8.858;2022-12-13T07:42:20;13.03;;;6.80;;
23123;SDS011;11731;48.592;8.858;2022-12-13T07:44:48;18.90;;;8.60;;
23123;SDS011;11731;48.592;8.858;2022-12-13T07:50:12;19.60;;;9.17;;
23123;SDS011;11731;48.592;8.858;2022-12-13T07:52:39;19.33;;;9.83;;
23123;SDS011;11731;48.592;8.858;2022-12-13T07:55:07;13.47;;;8.47;;
23123;SDS011;11731;48.592;8.858;2022-12-13T07:57:34;16.00;;;8.60;;
23123;SDS011;11731;48.592;8.858;2022-12-13T08:00:03;13.40;;;8.03;;
23123;SDS011;11731;48.592;8.858;2022-12-13T08:02:30;14.67;;;8.17;;
23123;SDS011;11731;48.592;8.858;2022-12-13T08:04:57;12.70;;;7.70;;
23123;SDS011;11731;48.592;8.858;2022-12-13T08:07:24;15.43;;;8.77;;
23123;SDS011;11731;48.592;8.858;2022-12-13T08:09:51;23.50;;;8.07;;
23123;SDS011;11731;48.592;8.858;2022-12-13T08:12:19;15.50;;;8.27;;
23123;SDS011;11731;48.592;8.858;2022-12-13T08:14:46;18.57;;;7.83;;
23123;SDS011;11731;48.592;8.858;2022-12-13T08:17:14;17.10;;;8.90;;
23123;SDS011;11731;48.592;8.858;2022-12-13T08:19:41;16.20;;;9.40;;
23123;SDS011;11731;48.592;8.858;2022-12-13T08:22:10;12.73;;;8.07;;
23123;SDS011;11731;48.592;8.858;2022-12-13T08:24:38;20.17;;;8.50;;
23123;SDS011;11731;48.592;8.858;2022-12-13T08:27:05;12.03;;;7.73;;
23123;SDS011;11731;48.592;8.858;2022-12-13T08:29:32;13.63;;;8.13;;
23123;SDS011;11731;48.592;8.858;2022-12-13T08:32:00;12.53;;;8.23;;
23123;SDS011;11731;48.592;8.858;2022-12-13T08:34:30;14.57;;;9.00;;
23123;SDS011;11731;48.592;8.858;2022-12-13T08:36:56;16.23;;;8.33;;
23123;SDS011;11731;48.592;8.858;2022-12-13T08:39:24;15.10;;;8.17;;
23123;SDS011;11731;48.592;8.858;2022-12-13T08:41:51;10.57;;;7.13;;
23123;SDS011;11731;48.592;8.858;2022-12-13T08:44:18;15.37;;;6.70;;
23123;SDS011;11731;48.592;8.858;2022-12-13T08:46:44;10.87;;;7.47;;
23123;SDS011;11731;48.592;8.858;2022-12-13T08:49:11;14.63;;;7.83;;
23123;SDS011;11731;48.592;8.858;2022-12-13T08:51:40;12.00;;;7.87;;
23123;SDS011;11731;48.592;8.858;2022-12-13T08:54:06;15.47;;;7.63;;
23123;SDS011;11731;48.592;8.858;2022-12-13T08:56:35;14.60;;;7.50;;
23123;SDS011;11731;48.592;8.858;2022-12-13T08:59:16;12.20;;;8.03;;
23123;SDS011;11731;48.592;8.858;2022-12-13T09:01:43;14.97;;;8.17;;
23123;SDS011;11731;48.592;8.858;2022-12-13T09:04:10;10.93;;;7.47;;
23123;SDS011;11731;48.592;8.858;2022-12-13T09:06:37;16.93;;;7.80;;
23123;SDS011;11731;48.592;8.858;2022-12-13T09:09:08;14.27;;;8.47;;
23123;SDS011;11731;48.592;8.858;2022-12-13T09:12:10;16.37;;;8.77;;
23123;SDS011;11731;48.592;8.858;2022-12-13T09:14:58;16.93;;;9.43;;
23123;SDS011;11731;48.592;8.858;2022-12-13T09:17:24;15.17;;;9.13;;
23123;SDS011;11731;48.592;8.858;2022-12-13T09:19:51;19.53;;;8.97;;
23123;SDS011;11731;48.592;8.858;2022-12-13T09:22:20;14.47;;;8.20;;
23123;SDS011;11731;48.592;8.858;2022-12-13T09:24:47;11.40;;;7.10;;
23123;SDS011;11731;48.592;8.858;2022-12-13T09:27:14;13.07;;;7.37;;
23123;SDS011;11731;48.592;8.858;2022-12-13T09:29:41;12.60;;;7.73;;
23123;SDS011;11731;48.592;8.858;2022-12-13T09:32:16;12.40;;;6.97;;
23123;SDS011;11731;48.592;8.858;2022-12-13T09:34:43;15.77;;;7.13;;
23123;SDS011;11731;48.592;8.858;2022-12-13T09:37:10;11.97;;;7.17;;
23123;SDS011;11731;48.592;8.858;2022-12-13T09:39:39;12.17;;;7.13;;
23123;SDS011;11731;48.592;8.858;2022-12-13T09:42:08;13.87;;;7.43;;
23123;SDS011;11731;48.592;8.858;2022-12-13T09:44:44;11.03;;;7.07;;
23123;SDS011;11731;48.592;8.858;2022-12-13T09:47:17;10.13;;;6.90;;
23123;SDS011;11731;48.592;8.858;2022-12-13T09:50:04;13.43;;;6.43;;
23123;SDS011;11731;48.592;8.858;2022-12-13T09:52:35;8.90;;;5.77;;
23123;SDS011;11731;48.592;8.858;2022-12-13T09:55:13;9.03;;;6.03;;
23123;SDS011;11731;48.592;8.858;2022-12-13T09:57:45;9.73;;;5.77;;
23123;SDS011;11731;48.592;8.858;2022-12-13T10:00:15;10.87;;;6.10;;
23123;SDS011;11731;48.592;8.858;2022-12-13T10:05:53;11.47;;;6.17;;
23123;SDS011;11731;48.592;8.858;2022-12-13T10:08:31;10.97;;;6.37;;
23123;SDS011;11731;48.592;8.858;2022-12-13T10:11:03;13.67;;;6.53;;
23123;SDS011;11731;48.592;8.858;2022-12-13T10:13:34;10.47;;;6.10;;
23123;SDS011;11731;48.592;8.858;2022-12-13T10:16:11;11.53;;;6.90;;
23123;SDS011;11731;48.592;8.858;2022-12-13T10:18:42;12.63;;;6.87;;
23123;SDS011;11731;48.592;8.858;2022-12-13T10:21:10;12.23;;;6.97;;
23123;SDS011;11731;48.592;8.858;2022-12-13T10:23:51;13.93;;;7.77;;
23123;SDS011;11731;48.592;8.858;2022-12-13T10:26:19;13.17;;;8.00;;
23123;SDS011;11731;48.592;8.858;2022-12-13T10:28:46;11.60;;;7.03;;
23123;SDS011;11731;48.592;8.858;2022-12-13T10:31:17;14.70;;;7.20;;
23123;SDS011;11731;48.592;8.858;2022-12-13T10:33:49;12.93;;;7.63;;
23123;SDS011;11731;48.592;8.858;2022-12-13T10:36:32;13.70;;;7.37;;
23123;SDS011;11731;48.592;8.858;2022-12-13T10:39:07;13.00;;;7.60;;
23123;SDS011;11731;48.592;8.858;2022-12-13T10:41:45;14.33;;;7.03;;
23123;SDS011;11731;48.592;8.858;2022-12-13T10:44:14;10.03;;;6.90;;
23123;SDS011;11731;48.592;8.858;2022-12-13T10:46:47;13.27;;;6.67;;
23123;SDS011;11731;48.592;8.858;2022-12-13T10:49:25;11.20;;;6.70;;
23123;SDS011;11731;48.592;8.858;2022-12-13T10:51:55;9.73;;;6.47;;
23123;SDS011;11731;48.592;8.858;2022-12-13T10:54:25;13.60;;;6.93;;
23123;SDS011;11731;48.592;8.858;2022-12-13T10:56:55;12.50;;;7.97;;
23123;SDS011;11731;48.592;8.858;2022-12-13T10:59:26;11.43;;;6.97;;
23123;SDS011;11731;48.592;8.858;2022-12-13T11:01:57;10.83;;;6.83;;
23123;SDS011;11731;48.592;8.858;2022-12-13T11:04:26;10.90;;;6.80;;
23123;SDS011;11731;48.592;8.858;2022-12-13T11:06:55;13.17;;;7.70;;
23123;SDS011;11731;48.592;8.858;2022-12-13T11:09:24;14.80;;;6.97;;
23123;SDS011;11731;48.592;8.858;2022-12-13T11:11:55;10.87;;;7.57;;
23123;SDS011;11731;48.592;8.858;2022-12-13T11:14:26;11.63;;;6.70;;
23123;SDS011;11731;48.592;8.858;2022-12-13T11:16:56;10.30;;;6.80;;
23123;SDS011;11731;48.592;8.858;2022-12-13T11:19:25;12.20;;;7.80;;
23123;SDS011;11731;48.592;8.858;2022-12-13T11:22:00;11.10;;;6.87;;
23123;SDS011;11731;48.592;8.858;2022-12-13T11:24:28;11.27;;;7.40;;
23123;SDS011;11731;48.592;8.858;2022-12-13T11:26:59;13.07;;;7.53;;
23123;SDS011;11731;48.592;8.858;2022-12-13T11:32:21;11.30;;;6.50;;
23123;SDS011;11731;48.592;8.858;2022-12-13T11:34:57;10.80;;;7.27;;
23123;SDS011;11731;48.592;8.858;2022-12-13T11:37:32;14.10;;;6.80;;
23123;SDS011;11731;48.592;8.858;2022-12-13T11:40:09;13.57;;;7.70;;
23123;SDS011;11731;48.592;8.858;2022-12-13T11:42:42;11.17;;;6.93;;
23123;SDS011;11731;48.592;8.858;2022-12-13T11:45:13;12.23;;;6.97;;
23123;SDS011;11731;48.592;8.858;2022-12-13T11:47:44;10.10;;;6.57;;
23123;SDS011;11731;48.592;8.858;2022-12-13T11:50:15;12.13;;;7.03;;
23123;SDS011;11731;48.592;8.858;2022-12-13T11:52:47;12.07;;;6.13;;
23123;SDS011;11731;48.592;8.858;2022-12-13T11:55:17;12.50;;;6.50;;
23123;SDS011;11731;48.592;8.858;2022-12-13T11:57:51;12.03;;;6.80;;
23123;SDS011;11731;48.592;8.858;2022-12-13T12:00:32;17.53;;;6.80;;
23123;SDS011;11731;48.592;8.858;2022-12-13T12:03:04;12.87;;;7.27;;
23123;SDS011;11731;48.592;8.858;2022-12-13T12:05:40;12.07;;;6.63;;
23123;SDS011;11731;48.592;8.858;2022-12-13T12:08:14;11.97;;;6.13;;
23123;SDS011;11731;48.592;8.858;2022-12-13T12:10:46;12.37;;;6.47;;
23123;SDS011;11731;48.592;8.858;2022-12-13T12:13:24;11.70;;;6.70;;
23123;SDS011;11731;48.592;8.858;2022-12-13T12:15:59;14.30;;;6.87;;
23123;SDS011;11731;48.592;8.858;2022-12-13T12:18:31;10.17;;;6.57;;
23123;SDS011;11731;48.592;8.858;2022-12-13T12:21:11;11.60;;;6.93;;
23123;SDS011;11731;48.592;8.858;2022-12-13T12:23:52;12.07;;;6.53;;
23123;SDS011;11731;48.592;8.858;2022-12-13T12:26:30;11.13;;;6.23;;
23123;SDS011;11731;48.592;8.858;2022-12-13T12:29:09;10.80;;;5.83;;
23123;SDS011;11731;48.592;8.858;2022-12-13T12:31:58;13.50;;;5.60;;
23123;SDS011;11731;48.592;8.858;2022-12-13T12:34:34;11.37;;;6.40;;
23123;SDS011;11731;48.592;8.858;2022-12-13T12:37:11;12.60;;;6.37;;
23123;SDS011;11731;48.592;8.858;2022-12-13T12:39:50;10.13;;;6.23;;
23123;SDS011;11731;48.592;8.858;2022-12-13T12:42:38;12.47;;;6.40;;
23123;SDS011;11731;48.592;8.858;2022-12-13T12:45:18;11.47;;;6.93;;
23123;SDS011;11731;48.592;8.858;2022-12-13T12:48:00;9.87;;;6.07;;
23123;SDS011;11731;48.592;8.858;2022-12-13T12:50:40;9.70;;;6.20;;
23123;SDS011;11731;48.592;8.858;2022-12-13T12:53:25;8.30;;;5.53;;
23123;SDS011;11731;48.592;8.858;2022-12-13T12:56:07;10.67;;;6.20;;
23123;SDS011;11731;48.592;8.858;2022-12-13T12:58:48;11.60;;;6.77;;
23123;SDS011;11731;48.592;8.858;2022-12-13T13:01:24;10.20;;;6.17;;
23123;SDS011;11731;48.592;8.858;2022-12-13T13:04:01;8.60;;;6.07;;
23123;SDS011;11731;48.592;8.858;2022-12-13T13:06:32;12.23;;;6.80;;
23123;SDS011;11731;48.592;8.858;2022-12-13T13:09:04;18.23;;;6.40;;
23123;SDS011;11731;48.592;8.858;2022-12-13T13:11:33;10.50;;;6.47;;
23123;SDS011;11731;48.592;8.858;2022-12-13T13:14:04;10.23;;;5.70;;
23123;SDS011;11731;48.592;8.858;2022-12-13T13:16:53;8.90;;;5.73;;
23123;SDS011;11731;48.592;8.858;2022-12-13T13:22:26;11.13;;;5.53;;
23123;SDS011;11731;48.592;8.858;2022-12-13T13:25:11;11.50;;;6.20;;
23123;SDS011;11731;48.592;8.858;2022-12-13T13:27:45;13.53;;;6.40;;
23123;SDS011;11731;48.592;8.858;2022-12-13T13:30:15;12.30;;;6.53;;
23123;SDS011;11731;48.592;8.858;2022-12-13T13:32:46;9.37;;;5.90;;
23123;SDS011;11731;48.592;8.858;2022-12-13T13:38:25;9.40;;;5.63;;
23123;SDS011;11731;48.592;8.858;2022-12-13T13:47:36;9.47;;;6.03;;
23123;SDS011;11731;48.592;8.858;2022-12-13T13:50:17;9.67;;;5.43;;
23123;SDS011;11731;48.592;8.858;2022-12-13T13:59:35;13.17;;;5.63;;
23123;SDS011;11731;48.592;8.858;2022-12-13T14:08:46;10.63;;;5.23;;
23123;SDS011;11731;48.592;8.858;2022-12-13T14:11:43;7.77;;;5.17;;
23123;SDS011;11731;48.592;8.858;2022-12-13T14:14:50;8.77;;;5.13;;
23123;SDS011;11731;48.592;8.858;2022-12-13T14:21:01;7.97;;;5.07;;
23123;SDS011;11731;48.592;8.858;2022-12-13T14:23:41;8.00;;;4.77;;
23123;SDS011;11731;48.592;8.858;2022-12-13T14:26:22;7.50;;;5.17;;
23123;SDS011;11731;48.592;8.858;2022-12-13T14:28:56;8.00;;;5.30;;
23123;SDS011;11731;48.592;8.858;2022-12-13T14:31:32;9.20;;;5.60;;
23123;SDS011;11731;48.592;8.858;2022-12-13T14:34:02;7.73;;;4.57;;
23123;SDS011;11731;48.592;8.858;2022-12-13T14:36:32;8.47;;;4.63;;
23123;SDS011;11731;48.592;8.858;2022-12-13T14:39:03;9.13;;;5.13;;
23123;SDS011;11731;48.592;8.858;2022-12-13T14:41:31;6.70;;;4.50;;
23123;SDS011;11731;48.592;8.858;2022-12-13T14:44:14;7.63;;;4.80;;
23123;SDS011;11731;48.592;8.858;2022-12-13T14:46:49;8.63;;;4.90;;
23123;SDS011;11731;48.592;8.858;2022-12-13T14:49:18;6.87;;;4.80;;
23123;SDS011;11731;48.592;8.858;2022-12-13T14:51:46;10.40;;;5.37;;
23123;SDS011;11731;48.592;8.858;2022-12-13T14:54:18;11.07;;;5.10;;
23123;SDS011;11731;48.592;8.858;2022-12-13T14:56:54;7.60;;;4.47;;
23123;SDS011;11731;48.592;8.858;2022-12-13T14:59:22;9.37;;;5.10;;
23123;SDS011;11731;48.592;8.858;2022-12-13T15:01:53;8.93;;;4.60;;
23123;SDS011;11731;48.592;8.858;2022-12-13T15:04:24;8.87;;;4.47;;
23123;SDS011;11731;48.592;8.858;2022-12-13T15:09:42;6.67;;;4.20;;
23123;SDS011;11731;48.592;8.858;2022-12-13T15:12:10;9.03;;;4.57;;
23123;SDS011;11731;48.592;8.858;2022-12-13T15:14:40;7.83;;;5.00;;
23123;SDS011;11731;48.592;8.858;2022-12-13T15:17:20;11.67;;;4.83;;
23123;SDS011;11731;48.592;8.858;2022-12-13T15:19:52;7.67;;;4.67;;
23123;SDS011;11731;48.592;8.858;2022-12-13T15:22:19;6.97;;;4.30;;
23123;SDS011;11731;48.592;8.858;2022-12-13T15:24:48;10.30;;;4.53;;
23123;SDS011;11731;48.592;8.858;2022-12-13T15:27:16;9.20;;;4.63;;
23123;SDS011;11731;48.592;8.858;2022-12-13T15:29:45;9.03;;;4.07;;
23123;SDS011;11731;48.592;8.858;2022-12-13T15:32:14;7.53;;;4.87;;
23123;SDS011;11731;48.592;8.858;2022-12-13T15:34:43;8.80;;;4.43;;
23123;SDS011;11731;48.592;8.858;2022-12-13T15:37:14;7.67;;;4.90;;
23123;SDS011;11731;48.592;8.858;2022-12-13T15:39:45;14.90;;;4.60;;
23123;SDS011;11731;48.592;8.858;2022-12-13T15:42:15;5.67;;;4.13;;
23123;SDS011;11731;48.592;8.858;2022-12-13T15:44:46;9.93;;;4.93;;
23123;SDS011;11731;48.592;8.858;2022-12-13T15:47:15;10.10;;;4.73;;
23123;SDS011;11731;48.592;8.858;2022-12-13T15:49:44;10.97;;;5.13;;
23123;SDS011;11731;48.592;8.858;2022-12-13T15:52:27;5.37;;;3.67;;
23123;SDS011;11731;48.592;8.858;2022-12-13T15:54:58;7.90;;;4.30;;
23123;SDS011;11731;48.592;8.858;2022-12-13T15:57:27;9.40;;;4.47;;
23123;SDS011;11731;48.592;8.858;2022-12-13T16:00:18;8.07;;;4.17;;
23123;SDS011;11731;48.592;8.858;2022-12-13T16:02:56;6.87;;;4.20;;
23123;SDS011;11731;48.592;8.858;2022-12-13T16:05:28;7.23;;;4.43;;
23123;SDS011;11731;48.592;8.858;2022-12-13T16:08:04;7.10;;;4.30;;
23123;SDS011;11731;48.592;8.858;2022-12-13T16:10:34;7.10;;;3.73;;
23123;SDS011;11731;48.592;8.858;2022-12-13T16:13:02;8.83;;;4.57;;
23123;SDS011;11731;48.592;8.858;2022-12-13T16:15:30;14.87;;;4.20;;
23123;SDS011;11731;48.592;8.858;2022-12-13T16:18:05;9.57;;;4.07;;
23123;SDS011;11731;48.592;8.858;2022-12-13T16:20:37;13.53;;;4.37;;
23123;SDS011;11731;48.592;8.858;2022-12-13T16:23:04;7.87;;;5.20;;
23123;SDS011;11731;48.592;8.858;2022-12-13T16:25:31;10.37;;;4.87;;
23123;SDS011;11731;48.592;8.858;2022-12-13T16:27:59;9.40;;;5.13;;
23123;SDS011;11731;48.592;8.858;2022-12-13T16:30:48;8.63;;;4.83;;
23123;SDS011;11731;48.592;8.858;2022-12-13T16:33:24;9.40;;;4.67;;
23123;SDS011;11731;48.592;8.858;2022-12-13T16:35:52;9.13;;;4.67;;
23123;SDS011;11731;48.592;8.858;2022-12-13T16:38:20;11.00;;;5.00;;
23123;SDS011;11731;48.592;8.858;2022-12-13T16:40:47;8.63;;;4.67;;
23123;SDS011;11731;48.592;8.858;2022-12-13T16:43:21;6.97;;;4.47;;
23123;SDS011;11731;48.592;8.858;2022-12-13T16:45:50;8.43;;;4.60;;
23123;SDS011;11731;48.592;8.858;2022-12-13T16:48:19;6.73;;;4.40;;
23123;SDS011;11731;48.592;8.858;2022-12-13T16:50:48;11.43;;;4.70;;
23123;SDS011;11731;48.592;8.858;2022-12-13T16:53:16;10.17;;;4.73;;
23123;SDS011;11731;48.592;8.858;2022-12-13T16:55:43;10.13;;;4.53;;
23123;SDS011;11731;48.592;8.858;2022-12-13T16:58:11;7.63;;;4.53;;
23123;SDS011;11731;48.592;8.858;2022-12-13T17:00:41;9.43;;;4.37;;
23123;SDS011;11731;48.592;8.858;2022-12-13T17:03:10;10.87;;;4.20;;
23123;SDS011;11731;48.592;8.858;2022-12-13T17:05:43;8.23;;;4.73;;
23123;SDS011;11731;48.592;8.858;2022-12-13T17:08:11;11.40;;;4.90;;
23123;SDS011;11731;48.592;8.858;2022-12-13T17:10:39;9.47;;;4.67;;
23123;SDS011;11731;48.592;8.858;2022-12-13T17:13:06;13.00;;;5.40;;
23123;SDS011;11731;48.592;8.858;2022-12-13T17:15:33;8.50;;;4.80;;
23123;SDS011;11731;48.592;8.858;2022-12-13T17:18:02;7.23;;;4.80;;
23123;SDS011;11731;48.592;8.858;2022-12-13T17:20:29;7.33;;;4.83;;
23123;SDS011;11731;48.592;8.858;2022-12-13T17:22:55;8.27;;;5.40;;
23123;SDS011;11731;48.592;8.858;2022-12-13T17:25:22;7.40;;;4.80;;
23123;SDS011;11731;48.592;8.858;2022-12-13T17:27:49;8.00;;;4.37;;
23123;SDS011;11731;48.592;8.858;2022-12-13T17:30:16;6.93;;;4.50;;
23123;SDS011;11731;48.592;8.858;2022-12-13T17:32:44;7.90;;;4.57;;
23123;SDS011;11731;48.592;8.858;2022-12-13T17:35:12;8.97;;;4.83;;
23123;SDS011;11731;48.592;8.858;2022-12-13T17:37:40;7.47;;;4.73;;
23123;SDS011;11731;48.592;8.858;2022-12-13T17:40:08;8.10;;;4.77;;
23123;SDS011;11731;48.592;8.858;2022-12-13T17:42:35;11.13;;;5.03;;
23123;SDS011;11731;48.592;8.858;2022-12-13T17:45:03;8.40;;;5.07;;
23123;SDS011;11731;48.592;8.858;2022-12-13T17:47:30;10.27;;;4.60;;
23123;SDS011;11731;48.592;8.858;2022-12-13T17:49:57;9.90;;;5.13;;
23123;SDS011;11731;48.592;8.858;2022-12-13T17:52:25;8.93;;;5.40;;
23123;SDS011;11731;48.592;8.858;2022-12-13T17:54:52;10.43;;;4.80;;
23123;SDS011;11731;48.592;8.858;2022-12-13T17:57:19;7.77;;;4.13;;
23123;SDS011;11731;48.592;8.858;2022-12-13T17:59:46;10.93;;;5.53;;
23123;SDS011;11731;48.592;8.858;2022-12-13T18:02:13;5.33;;;4.30;;
23123;SDS011;11731;48.592;8.858;2022-12-13T18:04:41;7.97;;;4.90;;
23123;SDS011;11731;48.592;8.858;2022-12-13T18:07:08;9.57;;;4.37;;
23123;SDS011;11731;48.592;8.858;2022-12-13T18:09:36;12.43;;;5.10;;
23123;SDS011;11731;48.592;8.858;2022-12-13T18:12:03;10.37;;;4.93;;
23123;SDS011;11731;48.592;8.858;2022-12-13T18:14:49;8.43;;;4.57;;
23123;SDS011;11731;48.592;8.858;2022-12-13T18:31:03;9.50;;;4.73;;
23123;SDS011;11731;48.592;8.858;2022-12-13T18:33:31;8.70;;;4.83;;
23123;SDS011;11731;48.592;8.858;2022-12-13T18:35:58;8.27;;;5.10;;
23123;SDS011;11731;48.592;8.858;2022-12-13T18:38:25;7.03;;;4.53;;
23123;SDS011;11731;48.592;8.858;2022-12-13T18:40:52;9.67;;;5.40;;
23123;SDS011;11731;48.592;8.858;2022-12-13T18:43:20;9.87;;;5.73;;
23123;SDS011;11731;48.592;8.858;2022-12-13T18:45:48;9.50;;;6.07;;
23123;SDS011;11731;48.592;8.858;2022-12-13T18:48:19;10.97;;;6.30;;
23123;SDS011;11731;48.592;8.858;2022-12-13T18:51:23;12.13;;;6.37;;
23123;SDS011;11731;48.592;8.858;2022-12-13T18:53:51;10.90;;;5.80;;
23123;SDS011;11731;48.592;8.858;2022-12-13T18:56:18;9.00;;;6.03;;
23123;SDS011;11731;48.592;8.858;2022-12-13T18:58:47;11.03;;;6.20;;
23123;SDS011;11731;48.592;8.858;2022-12-13T19:01:15;10.07;;;6.10;;
23123;SDS011;11731;48.592;8.858;2022-12-13T19:07:09;11.13;;;6.20;;
23123;SDS011;11731;48.592;8.858;2022-12-13T19:09:36;11.50;;;5.73;;
23123;SDS011;11731;48.592;8.858;2022-12-13T19:12:10;10.27;;;6.40;;
23123;SDS011;11731;48.592;8.858;2022-12-13T19:14:59;10.43;;;5.80;;
23123;SDS011;11731;48.592;8.858;2022-12-13T19:17:36;9.07;;;6.10;;
23123;SDS011;11731;48.592;8.858;2022-12-13T19:20:12;9.47;;;5.17;;
23123;SDS011;11731;48.592;8.858;2022-12-13T19:22:55;9.53;;;5.87;;
23123;SDS011;11731;48.592;8.858;2022-12-13T19:25:22;9.60;;;5.57;;
23123;SDS011;11731;48.592;8.858;2022-12-13T19:27:49;10.93;;;6.37;;
23123;SDS011;11731;48.592;8.858;2022-12-13T19:30:20;10.37;;;5.60;;
23123;SDS011;11731;48.592;8.858;2022-12-13T19:32:47;8.43;;;5.17;;
23123;SDS011;11731;48.592;8.858;2022-12-13T19:35:15;9.10;;;5.80;;
23123;SDS011;11731;48.592;8.858;2022-12-13T19:40:58;11.07;;;5.73;;
23123;SDS011;11731;48.592;8.858;2022-12-13T19:44:31;8.33;;;5.47;;
23123;SDS011;11731;48.592;8.858;2022-12-13T19:52:56;10.63;;;6.23;;
23123;SDS011;11731;48.592;8.858;2022-12-13T19:55:25;8.97;;;5.77;;
23123;SDS011;11731;48.592;8.858;2022-12-13T19:57:52;10.33;;;6.00;;
23123;SDS011;11731;48.592;8.858;2022-12-13T20:00:19;10.67;;;6.23;;
23123;SDS011;11731;48.592;8.858;2022-12-13T20:02:46;11.63;;;6.30;;
23123;SDS011;11731;48.592;8.858;2022-12-13T20:05:14;11.80;;;5.97;;
23123;SDS011;11731;48.592;8.858;2022-12-13T20:07:41;9.63;;;5.77;;
23123;SDS011;11731;48.592;8.858;2022-12-13T20:10:09;10.93;;;6.07;;
23123;SDS011;11731;48.592;8.858;2022-12-13T20:15:34;7.70;;;6.00;;
23123;SDS011;11731;48.592;8.858;2022-12-13T20:18:04;12.00;;;6.37;;
23123;SDS011;11731;48.592;8.858;2022-12-13T20:24:05;11.07;;;6.13;;
23123;SDS011;11731;48.592;8.858;2022-12-13T20:26:34;8.50;;;5.83;;
23123;SDS011;11731;48.592;8.858;2022-12-13T20:35:43;8.50;;;5.37;;
23123;SDS011;11731;48.592;8.858;2022-12-13T20:41:21;10.37;;;6.07;;
23123;SDS011;11731;48.592;8.858;2022-12-13T20:43:50;9.77;;;5.70;;
23123;SDS011;11731;48.592;8.858;2022-12-13T20:46:19;10.40;;;5.90;;
23123;SDS011;11731;48.592;8.858;2022-12-13T20:48:49;10.73;;;6.00;;
23123;SDS011;11731;48.592;8.858;2022-12-13T20:55:01;10.27;;;6.03;;
23123;SDS011;11731;48.592;8.858;2022-12-13T20:57:50;9.57;;;5.73;;
23123;SDS011;11731;48.592;8.858;2022-12-13T21:00:17;10.47;;;6.63;;
23123;SDS011;11731;48.592;8.858;2022-12-13T21:02:48;8.57;;;5.50;;
23123;SDS011;11731;48.592;8.858;2022-12-13T21:07:34;10.60;;;6.50;;
23123;SDS011;11731;48.592;8.858;2022-12-13T21:08:47;10.73;;;7.30;;